sensor_id;sensor_type;location;lat;lon;timestamp;P1;P2;P0
72307;PMS5003;60257;42.638;23.376;2022-09-03T00:05:21;16.00;15.25;8.00
72307;PMS5003;60257;42.638;23.376;2022-09-03T00:07:59;10.25;10.25;7.00
72307;PMS5003;60257;42.638;23.376;2022-09-03T00:10:48;14.25;13.00;8.50
72307;PMS5003;60257;42.638;23.376;2022-09-03T00:13:21;14.00;14.00;7.75
72307;PMS5003;60257;42.638;23.376;2022-09-03T00:15:50;15.00;14.25;8.00
72307;PMS5003;60257;42.638;23.376;2022-09-03T00:18:19;18.50;16.00;9.00
72307;PMS5003;60257;42.638;23.376;2022-09-03T00:21:03;14.25;14.25;9.00
72307;PMS5003;60257;42.638;23.376;2022-09-03T00:23:34;18.75;16.75;9.00
72307;PMS5003;60257;42.638;23.376;2022-09-03T00:28:48;16.00;14.00;8.00
72307;PMS5003;60257;42.638;23.376;2022-09-03T00:31:21;11.50;11.50;7.25
72307;PMS5003;60257;42.638;23.376;2022-09-03T00:33:55;13.25;12.00;8.00
72307;PMS5003;60257;42.638;23.376;2022-09-03T00:36:42;14.75;13.25;7.50
72307;PMS5003;60257;42.638;23.376;2022-09-03T00:39:11;12.75;11.25;7.00
72307;PMS5003;60257;42.638;23.376;2022-09-03T00:41:43;13.25;13.25;6.75
72307;PMS5003;60257;42.638;23.376;2022-09-03T00:58:04;13.50;13.00;8.75
72307;PMS5003;60257;42.638;23.376;2022-09-03T01:00:37;24.25;21.25;9.75
72307;PMS5003;60257;42.638;23.376;2022-09-03T01:03:11;15.75;14.75;9.00
72307;PMS5003;60257;42.638;23.376;2022-09-03T01:14:20;15.00;15.00;10.00
72307;PMS5003;60257;42.638;23.376;2022-09-03T01:26:06;16.25;14.75;9.25
72307;PMS5003;60257;42.638;23.376;2022-09-03T01:28:51;19.25;17.25;10.25
72307;PMS5003;60257;42.638;23.376;2022-09-03T01:34:39;15.25;15.25;9.75
72307;PMS5003;60257;42.638;23.376;2022-09-03T01:37:26;12.50;12.50;7.50
72307;PMS5003;60257;42.638;23.376;2022-09-03T02:02:08;18.25;16.25;11.00
72307;PMS5003;60257;42.638;23.376;2022-09-03T02:04:35;13.00;13.00;8.25
72307;PMS5003;60257;42.638;23.376;2022-09-03T02:07:01;16.75;14.00;7.75
72307;PMS5003;60257;42.638;23.376;2022-09-03T02:09:27;14.25;13.75;7.25
72307;PMS5003;60257;42.638;23.376;2022-09-03T02:12:06;13.00;13.00;8.00
72307;PMS5003;60257;42.638;23.376;2022-09-03T02:14:37;15.25;14.50;9.00
72307;PMS5003;60257;42.638;23.376;2022-09-03T02:17:03;16.50;16.50;9.00
72307;PMS5003;60257;42.638;23.376;2022-09-03T02:19:31;13.75;13.75;10.25
72307;PMS5003;60257;42.638;23.376;2022-09-03T02:21:58;15.75;15.75;9.25
72307;PMS5003;60257;42.638;23.376;2022-09-03T02:24:24;17.75;14.00;8.25
72307;PMS5003;60257;42.638;23.376;2022-09-03T02:26:51;14.75;14.00;9.25
72307;PMS5003;60257;42.638;23.376;2022-09-03T02:29:17;15.75;15.25;10.75
72307;PMS5003;60257;42.638;23.376;2022-09-03T02:31:43;18.50;17.00;9.00
72307;PMS5003;60257;42.638;23.376;2022-09-03T02:34:09;16.75;16.00;9.25
72307;PMS5003;60257;42.638;23.376;2022-09-03T02:36:36;12.00;11.75;8.00
72307;PMS5003;60257;42.638;23.376;2022-09-03T02:39:04;17.00;16.00;9.75
72307;PMS5003;60257;42.638;23.376;2022-09-03T02:41:31;16.25;15.00;9.00
72307;PMS5003;60257;42.638;23.376;2022-09-03T02:44:02;17.00;15.75;10.75
72307;PMS5003;60257;42.638;23.376;2022-09-03T02:46:34;13.75;13.75;9.50
72307;PMS5003;60257;42.638;23.376;2022-09-03T02:49:07;14.75;14.75;8.00
72307;PMS5003;60257;42.638;23.376;2022-09-03T02:51:34;19.75;18.50;9.00
72307;PMS5003;60257;42.638;23.376;2022-09-03T02:54:06;17.00;16.25;10.00
72307;PMS5003;60257;42.638;23.376;2022-09-03T02:56:32;18.50;18.00;9.00
72307;PMS5003;60257;42.638;23.376;2022-09-03T02:58:58;16.75;14.75;8.75
72307;PMS5003;60257;42.638;23.376;2022-09-03T03:01:24;15.50;15.50;10.00
72307;PMS5003;60257;42.638;23.376;2022-09-03T03:03:50;21.00;15.25;7.25
72307;PMS5003;60257;42.638;23.376;2022-09-03T03:06:17;16.25;15.50;9.00
72307;PMS5003;60257;42.638;23.376;2022-09-03T03:08:45;12.25;10.75;3.75
72307;PMS5003;60257;42.638;23.376;2022-09-03T03:11:11;18.00;18.00;9.50
72307;PMS5003;60257;42.638;23.376;2022-09-03T03:13:40;20.25;20.25;12.25
72307;PMS5003;60257;42.638;23.376;2022-09-03T03:16:05;20.50;18.00;11.00
72307;PMS5003;60257;42.638;23.376;2022-09-03T03:18:31;17.50;16.25;9.00
72307;PMS5003;60257;42.638;23.376;2022-09-03T03:21:02;18.75;15.50;8.50
72307;PMS5003;60257;42.638;23.376;2022-09-03T03:23:30;15.25;15.25;8.75
72307;PMS5003;60257;42.638;23.376;2022-09-03T03:25:59;17.75;16.25;9.75
72307;PMS5003;60257;42.638;23.376;2022-09-03T03:28:25;17.75;17.75;9.50
72307;PMS5003;60257;42.638;23.376;2022-09-03T03:30:51;14.25;14.25;7.50
72307;PMS5003;60257;42.638;23.376;2022-09-03T03:33:16;19.50;18.00;11.00
72307;PMS5003;60257;42.638;23.376;2022-09-03T03:35:42;14.25;14.25;9.00
72307;PMS5003;60257;42.638;23.376;2022-09-03T03:38:07;18.00;16.00;11.00
72307;PMS5003;60257;42.638;23.376;2022-09-03T03:40:33;16.50;16.25;10.00
72307;PMS5003;60257;42.638;23.376;2022-09-03T03:42:58;16.50;16.50;10.00
72307;PMS5003;60257;42.638;23.376;2022-09-03T03:45:24;15.75;15.75;8.50
72307;PMS5003;60257;42.638;23.376;2022-09-03T03:47:49;15.00;15.00;10.75
72307;PMS5003;60257;42.638;23.376;2022-09-03T03:50:15;13.25;13.00;7.50
72307;PMS5003;60257;42.638;23.376;2022-09-03T03:52:41;15.75;15.00;8.25
72307;PMS5003;60257;42.638;23.376;2022-09-03T03:55:07;14.50;13.75;7.75
72307;PMS5003;60257;42.638;23.376;2022-09-03T03:57:33;9.75;9.75;4.00
72307;PMS5003;60257;42.638;23.376;2022-09-03T03:59:59;17.00;15.50;9.00
72307;PMS5003;60257;42.638;23.376;2022-09-03T04:02:24;14.25;14.00;7.50
72307;PMS5003;60257;42.638;23.376;2022-09-03T04:04:50;14.25;14.25;8.25
72307;PMS5003;60257;42.638;23.376;2022-09-03T04:07:15;17.50;17.50;10.00
72307;PMS5003;60257;42.638;23.376;2022-09-03T04:09:40;16.75;16.75;9.00
72307;PMS5003;60257;42.638;23.376;2022-09-03T04:12:06;20.00;20.00;12.00
72307;PMS5003;60257;42.638;23.376;2022-09-03T04:14:32;14.25;12.25;7.00
72307;PMS5003;60257;42.638;23.376;2022-09-03T04:16:59;25.25;20.00;10.50
72307;PMS5003;60257;42.638;23.376;2022-09-03T04:19:26;19.25;17.25;9.75
72307;PMS5003;60257;42.638;23.376;2022-09-03T04:21:54;18.50;18.50;10.75
72307;PMS5003;60257;42.638;23.376;2022-09-03T04:24:20;16.50;13.75;6.75
72307;PMS5003;60257;42.638;23.376;2022-09-03T04:26:45;17.00;15.25;7.50
72307;PMS5003;60257;42.638;23.376;2022-09-03T04:29:11;15.25;14.25;8.75
72307;PMS5003;60257;42.638;23.376;2022-09-03T04:31:37;22.75;20.00;12.50
72307;PMS5003;60257;42.638;23.376;2022-09-03T04:34:03;23.75;20.25;9.75
72307;PMS5003;60257;42.638;23.376;2022-09-03T04:36:33;16.00;15.00;10.00
72307;PMS5003;60257;42.638;23.376;2022-09-03T04:38:59;12.75;12.75;7.50
72307;PMS5003;60257;42.638;23.376;2022-09-03T04:41:28;16.50;15.00;8.00
72307;PMS5003;60257;42.638;23.376;2022-09-03T04:43:56;20.00;18.50;11.75
72307;PMS5003;60257;42.638;23.376;2022-09-03T04:46:24;18.75;18.50;11.00
72307;PMS5003;60257;42.638;23.376;2022-09-03T04:48:52;15.50;14.75;8.25
72307;PMS5003;60257;42.638;23.376;2022-09-03T04:51:19;18.50;17.50;9.00
72307;PMS5003;60257;42.638;23.376;2022-09-03T04:53:53;17.00;15.25;10.00
72307;PMS5003;60257;42.638;23.376;2022-09-03T04:56:25;14.25;14.25;8.00
72307;PMS5003;60257;42.638;23.376;2022-09-03T04:58:53;18.50;17.00;9.75
72307;PMS5003;60257;42.638;23.376;2022-09-03T05:01:21;18.00;17.75;9.50
72307;PMS5003;60257;42.638;23.376;2022-09-03T05:03:48;15.75;13.50;11.00
72307;PMS5003;60257;42.638;23.376;2022-09-03T05:06:16;25.25;22.75;12.50
72307;PMS5003;60257;42.638;23.376;2022-09-03T05:08:43;15.00;14.00;7.25
72307;PMS5003;60257;42.638;23.376;2022-09-03T05:11:12;12.00;12.00;7.00
72307;PMS5003;60257;42.638;23.376;2022-09-03T05:13:38;16.00;14.25;9.50
72307;PMS5003;60257;42.638;23.376;2022-09-03T05:16:08;15.25;14.75;8.25
72307;PMS5003;60257;42.638;23.376;2022-09-03T05:18:34;16.25;16.25;11.50
72307;PMS5003;60257;42.638;23.376;2022-09-03T05:21:01;15.00;15.00;8.00
72307;PMS5003;60257;42.638;23.376;2022-09-03T05:23:34;17.25;13.25;9.50
72307;PMS5003;60257;42.638;23.376;2022-09-03T05:26:02;13.00;11.75;6.50
72307;PMS5003;60257;42.638;23.376;2022-09-03T05:28:33;17.00;17.00;10.00
72307;PMS5003;60257;42.638;23.376;2022-09-03T05:31:01;15.75;14.00;9.00
72307;PMS5003;60257;42.638;23.376;2022-09-03T05:33:34;13.00;11.50;5.25
72307;PMS5003;60257;42.638;23.376;2022-09-03T05:36:00;17.50;17.50;11.00
72307;PMS5003;60257;42.638;23.376;2022-09-03T05:38:27;16.50;16.00;9.00
72307;PMS5003;60257;42.638;23.376;2022-09-03T05:40:53;14.25;14.25;9.50
72307;PMS5003;60257;42.638;23.376;2022-09-03T05:43:18;18.75;18.75;11.25
72307;PMS5003;60257;42.638;23.376;2022-09-03T05:45:45;19.00;19.00;11.25
72307;PMS5003;60257;42.638;23.376;2022-09-03T05:48:10;14.00;13.50;8.00
72307;PMS5003;60257;42.638;23.376;2022-09-03T05:50:35;14.00;13.50;7.50
72307;PMS5003;60257;42.638;23.376;2022-09-03T05:53:01;15.75;15.75;10.00
72307;PMS5003;60257;42.638;23.376;2022-09-03T05:55:26;16.50;15.00;9.00
72307;PMS5003;60257;42.638;23.376;2022-09-03T05:57:52;16.75;16.25;9.75
72307;PMS5003;60257;42.638;23.376;2022-09-03T06:00:18;13.00;13.00;8.75
72307;PMS5003;60257;42.638;23.376;2022-09-03T06:02:50;14.75;14.00;8.00
72307;PMS5003;60257;42.638;23.376;2022-09-03T06:05:16;20.00;17.50;11.50
72307;PMS5003;60257;42.638;23.376;2022-09-03T06:07:43;12.75;11.50;6.00
72307;PMS5003;60257;42.638;23.376;2022-09-03T06:10:09;16.00;14.25;7.50
72307;PMS5003;60257;42.638;23.376;2022-09-03T06:12:36;14.00;13.50;7.50
72307;PMS5003;60257;42.638;23.376;2022-09-03T06:15:03;26.25;25.00;14.25
72307;PMS5003;60257;42.638;23.376;2022-09-03T06:17:29;15.50;14.50;7.50
72307;PMS5003;60257;42.638;23.376;2022-09-03T06:19:55;29.33;28.33;18.00
72307;PMS5003;60257;42.638;23.376;2022-09-03T06:22:21;13.00;11.50;7.25
72307;PMS5003;60257;42.638;23.376;2022-09-03T06:24:49;10.00;8.25;3.50
72307;PMS5003;60257;42.638;23.376;2022-09-03T06:27:14;15.50;15.50;9.50
72307;PMS5003;60257;42.638;23.376;2022-09-03T06:29:39;14.25;11.75;7.25
72307;PMS5003;60257;42.638;23.376;2022-09-03T06:32:05;13.75;13.75;9.25
72307;PMS5003;60257;42.638;23.376;2022-09-03T06:34:30;17.25;15.25;8.00
72307;PMS5003;60257;42.638;23.376;2022-09-03T06:36:56;16.25;16.00;9.50
72307;PMS5003;60257;42.638;23.376;2022-09-03T06:39:23;16.50;16.00;8.00
72307;PMS5003;60257;42.638;23.376;2022-09-03T06:41:49;15.50;14.25;8.50
72307;PMS5003;60257;42.638;23.376;2022-09-03T06:44:16;13.75;13.75;8.00
72307;PMS5003;60257;42.638;23.376;2022-09-03T06:46:41;13.25;13.25;9.00
72307;PMS5003;60257;42.638;23.376;2022-09-03T06:49:07;13.75;12.25;5.00
72307;PMS5003;60257;42.638;23.376;2022-09-03T06:51:34;14.25;14.25;8.00
72307;PMS5003;60257;42.638;23.376;2022-09-03T06:54:08;17.50;16.25;9.25
72307;PMS5003;60257;42.638;23.376;2022-09-03T06:56:35;12.00;12.00;9.00
72307;PMS5003;60257;42.638;23.376;2022-09-03T06:59:04;13.75;13.25;8.25
72307;PMS5003;60257;42.638;23.376;2022-09-03T07:01:32;17.75;17.50;10.00
72307;PMS5003;60257;42.638;23.376;2022-09-03T07:04:02;16.75;16.75;8.75
72307;PMS5003;60257;42.638;23.376;2022-09-03T07:06:34;12.00;12.00;7.50
72307;PMS5003;60257;42.638;23.376;2022-09-03T07:09:07;12.00;12.00;8.25
72307;PMS5003;60257;42.638;23.376;2022-09-03T07:11:34;15.00;14.25;10.00
72307;PMS5003;60257;42.638;23.376;2022-09-03T07:14:00;17.00;15.75;8.00
72307;PMS5003;60257;42.638;23.376;2022-09-03T07:16:28;14.50;13.25;6.50
72307;PMS5003;60257;42.638;23.376;2022-09-03T07:18:59;12.50;12.00;8.50
72307;PMS5003;60257;42.638;23.376;2022-09-03T07:21:26;13.75;13.75;8.00
72307;PMS5003;60257;42.638;23.376;2022-09-03T07:23:53;11.75;10.75;4.50
72307;PMS5003;60257;42.638;23.376;2022-09-03T07:26:29;14.75;14.00;8.50
72307;PMS5003;60257;42.638;23.376;2022-09-03T07:28:56;15.00;13.25;7.00
72307;PMS5003;60257;42.638;23.376;2022-09-03T07:34:00;15.25;15.00;8.00
72307;PMS5003;60257;42.638;23.376;2022-09-03T07:36:30;12.25;12.00;7.50
72307;PMS5003;60257;42.638;23.376;2022-09-03T07:39:03;15.25;15.25;8.00
72307;PMS5003;60257;42.638;23.376;2022-09-03T07:41:29;15.50;15.50;9.50
72307;PMS5003;60257;42.638;23.376;2022-09-03T07:43:57;19.00;19.00;11.00
72307;PMS5003;60257;42.638;23.376;2022-09-03T07:46:30;11.25;11.25;7.00
72307;PMS5003;60257;42.638;23.376;2022-09-03T07:48:58;13.00;11.25;6.25
72307;PMS5003;60257;42.638;23.376;2022-09-03T07:51:29;13.25;12.75;7.25
72307;PMS5003;60257;42.638;23.376;2022-09-03T07:53:58;13.00;12.00;7.50
72307;PMS5003;60257;42.638;23.376;2022-09-03T07:56:26;14.50;14.50;10.00
72307;PMS5003;60257;42.638;23.376;2022-09-03T07:58:55;13.00;13.00;8.00
72307;PMS5003;60257;42.638;23.376;2022-09-03T08:01:22;14.00;13.25;8.50
72307;PMS5003;60257;42.638;23.376;2022-09-03T08:03:49;11.75;11.75;8.25
72307;PMS5003;60257;42.638;23.376;2022-09-03T08:06:20;10.25;10.25;6.50
72307;PMS5003;60257;42.638;23.376;2022-09-03T08:08:56;13.75;13.00;9.00
72307;PMS5003;60257;42.638;23.376;2022-09-03T08:11:24;12.50;12.50;8.25
72307;PMS5003;60257;42.638;23.376;2022-09-03T08:13:54;12.25;12.25;8.00
72307;PMS5003;60257;42.638;23.376;2022-09-03T08:16:28;14.25;14.25;8.25
72307;PMS5003;60257;42.638;23.376;2022-09-03T08:18:55;12.75;12.75;8.25
72307;PMS5003;60257;42.638;23.376;2022-09-03T08:21:21;13.25;12.25;8.25
72307;PMS5003;60257;42.638;23.376;2022-09-03T08:23:48;13.25;12.25;8.00
72307;PMS5003;60257;42.638;23.376;2022-09-03T08:26:16;10.75;10.75;7.00
72307;PMS5003;60257;42.638;23.376;2022-09-03T08:28:42;12.00;12.00;6.75
72307;PMS5003;60257;42.638;23.376;2022-09-03T08:31:10;12.00;12.00;7.50
72307;PMS5003;60257;42.638;23.376;2022-09-03T08:33:42;9.50;8.75;4.00
72307;PMS5003;60257;42.638;23.376;2022-09-03T08:36:10;14.25;14.00;8.75
72307;PMS5003;60257;42.638;23.376;2022-09-03T08:38:44;14.50;14.50;6.75
72307;PMS5003;60257;42.638;23.376;2022-09-03T08:41:14;18.75;18.75;12.25
72307;PMS5003;60257;42.638;23.376;2022-09-03T08:46:19;13.75;13.75;7.75
72307;PMS5003;60257;42.638;23.376;2022-09-03T08:48:50;14.75;11.50;7.75
72307;PMS5003;60257;42.638;23.376;2022-09-03T08:51:17;10.75;10.75;6.75
72307;PMS5003;60257;42.638;23.376;2022-09-03T08:53:48;14.25;14.25;7.50
72307;PMS5003;60257;42.638;23.376;2022-09-03T08:56:29;13.75;12.75;8.75
72307;PMS5003;60257;42.638;23.376;2022-09-03T08:58:56;14.75;14.25;10.25
72307;PMS5003;60257;42.638;23.376;2022-09-03T09:01:25;20.00;16.25;9.50
72307;PMS5003;60257;42.638;23.376;2022-09-03T09:07:05;12.75;12.75;8.50
72307;PMS5003;60257;42.638;23.376;2022-09-03T09:09:34;13.75;13.25;8.25
72307;PMS5003;60257;42.638;23.376;2022-09-03T09:20:08;12.75;12.75;6.75
72307;PMS5003;60257;42.638;23.376;2022-09-03T09:22:42;17.50;16.25;9.75
72307;PMS5003;60257;42.638;23.376;2022-09-03T09:25:12;15.00;15.00;9.25
72307;PMS5003;60257;42.638;23.376;2022-09-03T09:27:45;12.25;11.75;8.75
72307;PMS5003;60257;42.638;23.376;2022-09-03T09:30:16;14.25;13.50;9.25
72307;PMS5003;60257;42.638;23.376;2022-09-03T09:32:42;19.50;15.50;10.25
72307;PMS5003;60257;42.638;23.376;2022-09-03T09:35:08;7.00;7.00;5.25
72307;PMS5003;60257;42.638;23.376;2022-09-03T09:37:45;18.25;18.25;12.00
72307;PMS5003;60257;42.638;23.376;2022-09-03T09:40:49;12.00;12.00;7.50
72307;PMS5003;60257;42.638;23.376;2022-09-03T09:43:16;15.75;15.75;9.75
72307;PMS5003;60257;42.638;23.376;2022-09-03T09:45:45;15.25;13.75;8.25
72307;PMS5003;60257;42.638;23.376;2022-09-03T09:48:25;14.00;14.00;7.75
72307;PMS5003;60257;42.638;23.376;2022-09-03T09:51:08;13.50;13.50;6.00
72307;PMS5003;60257;42.638;23.376;2022-09-03T09:53:37;12.00;12.00;6.50
72307;PMS5003;60257;42.638;23.376;2022-09-03T09:56:03;18.75;17.50;8.75
72307;PMS5003;60257;42.638;23.376;2022-09-03T09:58:30;14.75;14.75;9.25
72307;PMS5003;60257;42.638;23.376;2022-09-03T10:01:39;18.50;16.50;10.00
72307;PMS5003;60257;42.638;23.376;2022-09-03T10:03:57;17.25;17.25;11.25
72307;PMS5003;60257;42.638;23.376;2022-09-03T10:06:28;15.50;15.00;9.50
72307;PMS5003;60257;42.638;23.376;2022-09-03T10:09:15;11.75;11.75;9.25
72307;PMS5003;60257;42.638;23.376;2022-09-03T10:11:43;13.75;13.25;6.75
72307;PMS5003;60257;42.638;23.376;2022-09-03T10:14:17;19.50;17.50;10.00
72307;PMS5003;60257;42.638;23.376;2022-09-03T10:16:49;12.00;12.00;7.00
72307;PMS5003;60257;42.638;23.376;2022-09-03T10:19:26;15.50;15.50;8.25
72307;PMS5003;60257;42.638;23.376;2022-09-03T10:22:04;14.75;14.75;9.75
72307;PMS5003;60257;42.638;23.376;2022-09-03T10:24:40;18.25;17.25;10.25
72307;PMS5003;60257;42.638;23.376;2022-09-03T10:27:16;17.50;16.50;9.25
72307;PMS5003;60257;42.638;23.376;2022-09-03T10:29:43;14.50;12.25;9.25
72307;PMS5003;60257;42.638;23.376;2022-09-03T10:49:31;17.75;15.75;9.75
72307;PMS5003;60257;42.638;23.376;2022-09-03T10:52:13;12.75;11.50;5.75
72307;PMS5003;60257;42.638;23.376;2022-09-03T10:54:54;15.00;14.50;7.75
72307;PMS5003;60257;42.638;23.376;2022-09-03T11:05:21;15.50;15.25;10.75
72307;PMS5003;60257;42.638;23.376;2022-09-03T11:10:31;15.50;15.25;10.00
72307;PMS5003;60257;42.638;23.376;2022-09-03T11:15:47;13.25;13.25;8.50
72307;PMS5003;60257;42.638;23.376;2022-09-03T11:20:54;11.25;10.50;6.00
72307;PMS5003;60257;42.638;23.376;2022-09-03T11:23:27;12.75;12.75;8.25
72307;PMS5003;60257;42.638;23.376;2022-09-03T11:25:56;14.50;14.50;9.25
72307;PMS5003;60257;42.638;23.376;2022-09-03T11:31:24;13.25;12.50;8.50
72307;PMS5003;60257;42.638;23.376;2022-09-03T11:34:12;10.75;10.25;7.00
72307;PMS5003;60257;42.638;23.376;2022-09-03T11:36:39;12.50;12.50;7.00
72307;PMS5003;60257;42.638;23.376;2022-09-03T11:39:12;12.00;11.25;6.00
72307;PMS5003;60257;42.638;23.376;2022-09-03T11:44:32;10.25;10.25;6.00
72307;PMS5003;60257;42.638;23.376;2022-09-03T11:47:42;11.00;11.00;6.00
72307;PMS5003;60257;42.638;23.376;2022-09-03T11:50:07;11.50;11.50;6.00
72307;PMS5003;60257;42.638;23.376;2022-09-03T11:52:44;13.75;13.75;8.50
72307;PMS5003;60257;42.638;23.376;2022-09-03T11:55:10;10.50;10.50;5.00
72307;PMS5003;60257;42.638;23.376;2022-09-03T11:57:39;11.50;11.50;7.75
72307;PMS5003;60257;42.638;23.376;2022-09-03T12:00:15;12.00;12.00;7.25
72307;PMS5003;60257;42.638;23.376;2022-09-03T12:02:50;7.75;7.75;5.50
72307;PMS5003;60257;42.638;23.376;2022-09-03T12:05:41;11.00;10.25;6.00
72307;PMS5003;60257;42.638;23.376;2022-09-03T12:11:18;8.50;8.25;5.00
72307;PMS5003;60257;42.638;23.376;2022-09-03T12:14:17;10.25;10.25;5.25
72307;PMS5003;60257;42.638;23.376;2022-09-03T12:22:11;10.50;10.50;6.00
72307;PMS5003;60257;42.638;23.376;2022-09-03T12:24:39;10.25;10.25;5.50
72307;PMS5003;60257;42.638;23.376;2022-09-03T12:27:08;9.50;9.25;5.25
72307;PMS5003;60257;42.638;23.376;2022-09-03T12:29:38;10.50;10.50;5.50
72307;PMS5003;60257;42.638;23.376;2022-09-03T12:32:14;9.25;9.00;5.25
72307;PMS5003;60257;42.638;23.376;2022-09-03T12:34:40;8.25;7.25;5.00
72307;PMS5003;60257;42.638;23.376;2022-09-03T12:37:15;8.75;8.50;5.00
72307;PMS5003;60257;42.638;23.376;2022-09-03T12:39:54;9.50;9.50;5.00
72307;PMS5003;60257;42.638;23.376;2022-09-03T12:42:27;7.00;7.00;4.75
72307;PMS5003;60257;42.638;23.376;2022-09-03T12:44:55;8.50;8.50;5.00
72307;PMS5003;60257;42.638;23.376;2022-09-03T12:47:29;11.25;11.25;6.75
72307;PMS5003;60257;42.638;23.376;2022-09-03T12:50:03;11.25;11.25;7.00
72307;PMS5003;60257;42.638;23.376;2022-09-03T12:52:43;10.25;10.25;6.75
72307;PMS5003;60257;42.638;23.376;2022-09-03T12:58:12;12.75;12.75;6.00
72307;PMS5003;60257;42.638;23.376;2022-09-03T13:00:46;12.25;12.25;8.00
72307;PMS5003;60257;42.638;23.376;2022-09-03T13:03:27;11.00;9.75;5.00
72307;PMS5003;60257;42.638;23.376;2022-09-03T13:05:56;9.75;9.75;6.00
72307;PMS5003;60257;42.638;23.376;2022-09-03T13:08:26;8.00;8.00;5.00
72307;PMS5003;60257;42.638;23.376;2022-09-03T13:10:57;8.00;8.00;4.25
72307;PMS5003;60257;42.638;23.376;2022-09-03T13:13:25;9.00;7.25;5.00
72307;PMS5003;60257;42.638;23.376;2022-09-03T13:15:54;9.50;9.25;6.00
72307;PMS5003;60257;42.638;23.376;2022-09-03T13:18:30;9.50;9.00;5.00
72307;PMS5003;60257;42.638;23.376;2022-09-03T13:21:17;10.75;10.75;7.00
72307;PMS5003;60257;42.638;23.376;2022-09-03T13:26:42;7.00;6.00;4.00
72307;PMS5003;60257;42.638;23.376;2022-09-03T13:35:07;9.75;9.50;5.75
72307;PMS5003;60257;42.638;23.376;2022-09-03T13:43:03;9.00;9.00;5.00
72307;PMS5003;60257;42.638;23.376;2022-09-03T13:45:44;5.75;5.75;4.00
72307;PMS5003;60257;42.638;23.376;2022-09-03T13:48:24;7.50;7.50;4.00
72307;PMS5003;60257;42.638;23.376;2022-09-03T14:02:14;10.00;9.75;6.00
72307;PMS5003;60257;42.638;23.376;2022-09-03T14:13:17;10.00;10.00;5.00
72307;PMS5003;60257;42.638;23.376;2022-09-03T14:18:55;7.00;7.00;4.25
72307;PMS5003;60257;42.638;23.376;2022-09-03T14:21:57;6.25;6.00;4.00
72307;PMS5003;60257;42.638;23.376;2022-09-03T14:27:07;8.00;8.00;5.25
72307;PMS5003;60257;42.638;23.376;2022-09-03T14:29:34;6.75;6.75;4.50
72307;PMS5003;60257;42.638;23.376;2022-09-03T14:37:32;8.75;8.75;5.00
72307;PMS5003;60257;42.638;23.376;2022-09-03T14:40:13;7.00;7.00;5.00
72307;PMS5003;60257;42.638;23.376;2022-09-03T14:51:34;11.50;11.50;6.75
72307;PMS5003;60257;42.638;23.376;2022-09-03T14:57:20;7.00;7.00;4.00
72307;PMS5003;60257;42.638;23.376;2022-09-03T14:59:55;9.50;9.50;5.25
72307;PMS5003;60257;42.638;23.376;2022-09-03T15:05:14;9.50;9.50;6.00
72307;PMS5003;60257;42.638;23.376;2022-09-03T15:08:27;10.75;9.75;5.25
72307;PMS5003;60257;42.638;23.376;2022-09-03T15:10:45;10.50;8.75;5.00
72307;PMS5003;60257;42.638;23.376;2022-09-03T15:13:16;6.00;6.00;4.00
72307;PMS5003;60257;42.638;23.376;2022-09-03T15:18:53;6.00;6.00;3.50
72307;PMS5003;60257;42.638;23.376;2022-09-03T15:24:36;6.75;6.75;4.00
72307;PMS5003;60257;42.638;23.376;2022-09-03T15:30:21;10.00;9.25;6.00
72307;PMS5003;60257;42.638;23.376;2022-09-03T15:38:18;11.50;11.25;7.00
72307;PMS5003;60257;42.638;23.376;2022-09-03T15:40:54;8.75;8.00;5.00
72307;PMS5003;60257;42.638;23.376;2022-09-03T15:43:28;10.75;9.75;8.00
72307;PMS5003;60257;42.638;23.376;2022-09-03T15:57:19;13.25;12.25;8.00
72307;PMS5003;60257;42.638;23.376;2022-09-03T16:06:02;12.25;12.25;8.25
72307;PMS5003;60257;42.638;23.376;2022-09-03T16:11:21;14.25;13.25;8.25
72307;PMS5003;60257;42.638;23.376;2022-09-03T16:19:51;13.75;13.75;8.00
72307;PMS5003;60257;42.638;23.376;2022-09-03T16:25:22;12.50;12.50;9.25
72307;PMS5003;60257;42.638;23.376;2022-09-03T16:36:52;16.25;16.25;8.50
72307;PMS5003;60257;42.638;23.376;2022-09-03T16:42:26;12.25;12.25;8.50
72307;PMS5003;60257;42.638;23.376;2022-09-03T16:45:08;17.00;17.00;8.75
72307;PMS5003;60257;42.638;23.376;2022-09-03T16:53:09;22.00;22.00;13.75
72307;PMS5003;60257;42.638;23.376;2022-09-03T17:06:34;18.00;18.00;10.00
72307;PMS5003;60257;42.638;23.376;2022-09-03T17:14:38;19.25;18.00;11.50
72307;PMS5003;60257;42.638;23.376;2022-09-03T17:17:42;17.50;17.50;9.50
72307;PMS5003;60257;42.638;23.376;2022-09-03T17:25:20;19.00;18.00;11.25
72307;PMS5003;60257;42.638;23.376;2022-09-03T17:36:17;17.25;16.75;9.00
72307;PMS5003;60257;42.638;23.376;2022-09-03T17:41:39;17.00;16.75;10.75
72307;PMS5003;60257;42.638;23.376;2022-09-03T17:50:10;22.00;20.00;13.50
72307;PMS5003;60257;42.638;23.376;2022-09-03T17:52:46;21.75;20.75;13.25
72307;PMS5003;60257;42.638;23.376;2022-09-03T17:57:46;20.50;20.00;10.75
72307;PMS5003;60257;42.638;23.376;2022-09-03T18:00:26;21.00;20.25;14.00
72307;PMS5003;60257;42.638;23.376;2022-09-03T18:03:10;20.75;19.00;13.50
72307;PMS5003;60257;42.638;23.376;2022-09-03T18:05:45;20.50;20.50;12.00
72307;PMS5003;60257;42.638;23.376;2022-09-03T18:08:17;20.25;20.00;12.75
72307;PMS5003;60257;42.638;23.376;2022-09-03T18:10:56;19.50;17.75;11.50
72307;PMS5003;60257;42.638;23.376;2022-09-03T18:16:13;15.75;14.75;8.00
72307;PMS5003;60257;42.638;23.376;2022-09-03T18:18:48;19.25;19.25;12.75
72307;PMS5003;60257;42.638;23.376;2022-09-03T18:21:23;19.00;19.00;11.00
72307;PMS5003;60257;42.638;23.376;2022-09-03T18:27:40;17.25;17.25;10.50
72307;PMS5003;60257;42.638;23.376;2022-09-03T18:30:29;16.00;15.00;8.00
72307;PMS5003;60257;42.638;23.376;2022-09-03T18:33:17;17.25;17.25;10.75
72307;PMS5003;60257;42.638;23.376;2022-09-03T18:36:05;19.25;19.25;11.00
72307;PMS5003;60257;42.638;23.376;2022-09-03T18:38:49;20.25;20.25;13.00
72307;PMS5003;60257;42.638;23.376;2022-09-03T18:41:46;19.25;18.75;11.50
72307;PMS5003;60257;42.638;23.376;2022-09-03T18:45:08;22.00;22.00;14.50
72307;PMS5003;60257;42.638;23.376;2022-09-03T18:56:53;19.75;19.75;14.00
72307;PMS5003;60257;42.638;23.376;2022-09-03T19:02:32;19.75;18.50;12.00
72307;PMS5003;60257;42.638;23.376;2022-09-03T19:05:33;20.75;20.75;11.00
72307;PMS5003;60257;42.638;23.376;2022-09-03T19:08:27;20.00;18.75;12.00
72307;PMS5003;60257;42.638;23.376;2022-09-03T19:11:27;20.25;20.25;13.00
72307;PMS5003;60257;42.638;23.376;2022-09-03T19:20:30;24.00;24.00;13.75
72307;PMS5003;60257;42.638;23.376;2022-09-03T19:23:16;19.00;18.75;11.00
72307;PMS5003;60257;42.638;23.376;2022-09-03T19:26:03;23.00;22.75;13.00
72307;PMS5003;60257;42.638;23.376;2022-09-03T19:28:55;20.00;19.50;12.00
72307;PMS5003;60257;42.638;23.376;2022-09-03T19:31:50;21.00;21.00;13.00